Terminal Aerodrome Forecast
Issued by NWS

Home | Current Version | Previous Version | Text Only | Print | Product List | Glossary On
Versions: 1 2 3 4 5 6 7 8 9 10 11 12 13 14 15 16 17 18 19 20 21 22 23 24 25 26 27 28 29 30 31 32 33 34 35 36 37 38 39 40 41 42 43 44 45 46 47 48 49 50
000
FTUS43 KMKX 271441 AAA
TAFUES
TAF AMD
KUES 271441Z 2715/2812 19005KT 5SM BR BKN015
     FM271530 16006KT P6SM BKN070 BKN150
     FM271700 17010G16KT P6SM VCTS BKN080CB
     FM272100 18009KT P6SM VCTS BKN070CB
     FM280000 15008KT P6SM -SHRA VCTS BKN060CB
     FM280300 16007KT 5SM -SHRA VCTS OVC035CB
     FM280600 17008KT 4SM BR VCTS OVC015CB
     FM280800 18007KT 3SM BR OVC015=

USA.gov is the U.S. government's official web portal to all federal, state and local government web resources and services.